createdAt,value
2023-05-02T00:02:07.075Z,79.76
2023-05-02T00:04:34.062Z,80.05
2023-05-02T00:07:01.085Z,79.86
2023-05-02T00:09:27.783Z,79.76
2023-05-02T00:11:54.443Z,79.86
2023-05-02T00:14:21.188Z,79.75
2023-05-02T00:16:47.893Z,79.88
2023-05-02T00:19:14.738Z,80.15
2023-05-02T00:21:41.376Z,80.29
2023-05-02T00:24:07.997Z,80.62
2023-05-02T00:26:34.632Z,81.12
2023-05-02T00:29:01.457Z,81.63
2023-05-02T00:31:28.207Z,82.04
2023-05-02T00:33:55.060Z,82.50
2023-05-02T00:36:21.718Z,82.88
2023-05-02T00:38:48.454Z,83.23
2023-05-02T00:41:16.717Z,83.30
2023-05-02T00:43:43.392Z,83.61
2023-05-02T00:46:12.197Z,83.57
2023-05-02T00:48:39.026Z,83.90
2023-05-02T00:51:06.439Z,84.12
2023-05-02T00:53:33.123Z,84.31
2023-05-02T00:55:59.867Z,84.10
2023-05-02T00:58:26.581Z,84.07
2023-05-02T01:00:56.704Z,83.74
2023-05-02T01:03:44.106Z,83.27
2023-05-02T01:06:29.563Z,82.71
2023-05-02T01:09:01.037Z,82.10
2023-05-02T01:11:40.133Z,81.91
2023-05-02T01:14:06.822Z,82.18
2023-05-02T01:16:33.562Z,82.33
2023-05-02T01:19:00.224Z,81.93
2023-05-02T01:21:28.106Z,81.54
2023-05-02T01:24:10.430Z,81.67
2023-05-02T01:26:41.528Z,81.92
2023-05-02T01:29:08.932Z,82.12
2023-05-02T01:31:37.027Z,82.39
2023-05-02T01:34:05.866Z,82.44
2023-05-02T01:36:32.757Z,82.47
2023-05-02T01:39:00.222Z,82.62
2023-05-02T01:41:27.670Z,82.73
2023-05-02T01:43:55.935Z,83.28
2023-05-02T01:46:23.142Z,83.48
2023-05-02T01:48:50.054Z,83.63
2023-05-02T01:51:17.268Z,83.73
2023-05-02T01:53:43.942Z,83.33
2023-05-02T01:56:10.696Z,83.14
2023-05-02T01:58:37.345Z,83.11
2023-05-02T02:01:05.566Z,83.27
2023-05-02T02:03:33.084Z,83.41
2023-05-02T02:05:59.782Z,83.56
2023-05-02T02:08:26.440Z,83.81
2023-05-02T02:10:57.532Z,84.29
2023-05-02T02:13:27.760Z,84.61
2023-05-02T02:15:58.131Z,84.55
2023-05-02T02:18:26.400Z,84.35
2023-05-02T02:20:54.418Z,84.34
2023-05-02T02:23:22.045Z,84.16
2023-05-02T02:25:49.520Z,83.45
2023-05-02T02:28:16.262Z,83.17
2023-05-02T02:30:42.991Z,83.12
2023-05-02T02:33:09.768Z,82.79
2023-05-02T02:35:38.952Z,82.33
2023-05-02T02:38:15.656Z,82.47
2023-05-02T02:40:46.165Z,82.63
2023-05-02T02:43:34.483Z,82.39
2023-05-02T02:46:35.431Z,82.16
2023-05-02T02:49:17.409Z,81.97
2023-05-02T02:51:54.008Z,81.86
2023-05-02T02:54:29.646Z,82.15
2023-05-02T02:57:02.193Z,82.84
2023-05-02T02:59:41.471Z,82.76
2023-05-02T03:02:09.721Z,82.35
2023-05-02T03:04:38.987Z,82.04
2023-05-02T03:07:05.685Z,82.16
2023-05-02T03:09:45.121Z,82.44
2023-05-02T03:12:12.083Z,82.60
2023-05-02T03:14:38.828Z,82.39
2023-05-02T03:17:05.954Z,82.21
2023-05-02T03:19:32.725Z,82.08
2023-05-02T03:21:59.363Z,82.00
2023-05-02T03:24:27.713Z,81.93
2023-05-02T03:26:59.172Z,81.98
2023-05-02T03:29:26.641Z,82.09
2023-05-02T03:31:53.335Z,82.02
2023-05-02T03:34:22.046Z,82.04
2023-05-02T03:36:48.938Z,82.35
2023-05-02T03:39:15.675Z,82.61
2023-05-02T03:41:43.917Z,82.94
2023-05-02T03:44:10.798Z,82.82
2023-05-02T03:46:37.639Z,82.80
2023-05-02T03:49:04.376Z,82.78
2023-05-02T03:51:30.999Z,82.36
2023-05-02T03:53:58.259Z,82.59
2023-05-02T03:56:25.070Z,82.53
2023-05-02T03:58:51.727Z,82.84
2023-05-02T04:01:18.576Z,82.99
2023-05-02T04:03:45.483Z,83.07
2023-05-02T04:06:13.367Z,83.12
2023-05-02T04:08:40.094Z,83.09
2023-05-02T04:11:07.346Z,83.08
2023-05-02T04:13:34.039Z,82.79
2023-05-02T04:16:00.782Z,82.69
2023-05-02T04:18:27.520Z,82.05
2023-05-02T04:20:54.205Z,82.13
2023-05-02T04:23:22.149Z,82.59
2023-05-02T04:25:55.309Z,82.56
2023-05-02T04:28:22.337Z,82.41
2023-05-02T04:30:49.642Z,82.49
2023-05-02T04:33:16.586Z,83.09
2023-05-02T04:35:43.275Z,83.46
2023-05-02T04:38:10.241Z,83.60
2023-05-02T04:40:37.085Z,83.85
2023-05-02T04:43:03.759Z,83.94
2023-05-02T04:45:30.531Z,84.01
2023-05-02T04:47:57.329Z,84.24
2023-05-02T04:50:24.027Z,84.23
2023-05-02T04:52:50.652Z,83.61
2023-05-02T04:55:17.271Z,84.49
2023-05-02T04:57:43.936Z,84.58
2023-05-02T05:00:11.375Z,84.90
2023-05-02T05:02:39.488Z,84.39
2023-05-02T05:05:06.537Z,83.94
2023-05-02T05:07:33.248Z,83.28
2023-05-02T05:10:00.391Z,83.15
2023-05-02T05:12:27.363Z,83.51
2023-05-02T05:14:54.022Z,82.49
2023-05-02T05:17:20.773Z,83.04
2023-05-02T05:19:47.424Z,83.39
2023-05-02T05:22:14.038Z,82.58
2023-05-02T05:24:40.770Z,81.12
2023-05-02T05:27:07.424Z,81.08
2023-05-02T05:29:34.109Z,81.37
2023-05-02T05:32:00.873Z,79.35
2023-05-02T05:34:27.570Z,79.60
2023-05-02T05:36:54.211Z,78.50
2023-05-02T05:39:21.065Z,77.96
2023-05-02T05:41:47.746Z,76.15
2023-05-02T05:44:14.629Z,75.91
2023-05-02T05:46:41.534Z,75.24
2023-05-02T05:49:08.338Z,74.92
2023-05-02T05:51:35.639Z,75.57
2023-05-02T05:54:02.452Z,73.08
2023-05-02T05:56:29.286Z,71.75
2023-05-02T05:58:56.086Z,72.94
2023-05-02T06:01:22.833Z,72.78
2023-05-02T06:03:49.797Z,71.16
2023-05-02T06:06:16.861Z,67.41
2023-05-02T06:08:43.618Z,68.07
2023-05-02T06:11:13.554Z,69.40
2023-05-02T06:13:40.302Z,69.64
2023-05-02T06:16:07.245Z,68.89
2023-05-02T06:18:34.004Z,68.46
2023-05-02T06:21:06.918Z,69.80
2023-05-02T06:23:33.581Z,69.34
2023-05-02T06:26:01.178Z,63.70
2023-05-02T06:28:28.460Z,64.20
2023-05-02T06:31:02.392Z,53.69
2023-05-02T06:33:29.740Z,58.33
2023-05-02T06:35:56.639Z,55.26
2023-05-02T06:38:23.578Z,52.36
2023-05-02T06:40:50.322Z,51.39
2023-05-02T06:43:17.166Z,46.31
2023-05-02T06:45:43.874Z,46.68
2023-05-02T06:48:10.680Z,44.91
2023-05-02T06:50:37.324Z,46.43
2023-05-02T06:53:06.919Z,47.38
2023-05-02T06:55:33.569Z,44.25
2023-05-02T06:58:00.587Z,42.75
2023-05-02T07:00:27.372Z,44.48
2023-05-02T07:02:54.196Z,41.81
2023-05-02T07:05:20.929Z,47.36
2023-05-02T07:07:47.663Z,41.52
2023-05-02T07:10:14.382Z,40.83
2023-05-02T07:12:41.129Z,44.12
2023-05-02T07:15:08.264Z,40.45
2023-05-02T07:17:35.095Z,41.76
2023-05-02T07:20:02.072Z,40.38
2023-05-02T07:22:29.011Z,39.59
2023-05-02T07:25:00.700Z,43.19
2023-05-02T07:27:27.447Z,42.46
2023-05-02T07:29:54.120Z,43.07
2023-05-02T07:32:22.044Z,37.72
2023-05-02T07:34:49.014Z,39.00
2023-05-02T07:37:15.935Z,40.61
2023-05-02T07:39:42.671Z,41.33
2023-05-02T07:42:09.400Z,40.87
2023-05-02T07:44:36.943Z,42.26
2023-05-02T07:47:03.634Z,38.07
2023-05-02T07:49:31.216Z,38.61
2023-05-02T07:51:58.050Z,39.37
2023-05-02T07:54:27.794Z,39.32
2023-05-02T07:56:55.092Z,38.51
2023-05-02T07:59:21.856Z,35.80
2023-05-02T08:01:48.570Z,36.64
2023-05-02T08:04:16.149Z,41.65
2023-05-02T08:06:44.923Z,37.51
2023-05-02T08:09:11.707Z,35.39
2023-05-02T08:11:38.421Z,38.37
2023-05-02T08:14:05.129Z,35.25
2023-05-02T08:16:31.883Z,35.20
2023-05-02T08:18:58.680Z,35.78
2023-05-02T08:21:25.509Z,32.64
2023-05-02T08:23:52.166Z,36.10
2023-05-02T08:26:19.200Z,31.66
2023-05-02T08:28:46.127Z,32.96
2023-05-02T08:31:15.389Z,33.10
2023-05-02T08:33:42.833Z,33.71
2023-05-02T08:36:13.565Z,33.53
2023-05-02T08:38:40.350Z,35.28
2023-05-02T08:41:11.686Z,33.18
2023-05-02T08:43:41.566Z,30.22
2023-05-02T08:46:09.536Z,30.31
2023-05-02T08:48:48.245Z,32.23
2023-05-02T08:51:15.850Z,34.59
2023-05-02T08:53:42.565Z,32.60
2023-05-02T08:56:10.503Z,32.25
2023-05-02T08:58:41.064Z,30.33
2023-05-02T09:01:14.968Z,31.05
2023-05-02T09:03:45.808Z,32.55
2023-05-02T09:06:14.371Z,29.75
2023-05-02T09:08:41.534Z,30.74
2023-05-02T09:11:09.396Z,30.51
2023-05-02T09:13:39.851Z,28.59
2023-05-02T09:16:07.986Z,30.58
2023-05-02T09:18:35.370Z,31.47
2023-05-02T09:21:06.479Z,28.72
2023-05-02T09:23:54.594Z,26.82
2023-05-02T09:26:21.934Z,27.57
2023-05-02T09:28:53.496Z,29.07
2023-05-02T09:34:16.510Z,29.10
2023-05-02T09:36:47.498Z,29.42
2023-05-02T09:39:15.817Z,28.52
2023-05-02T09:41:48.551Z,27.65
2023-05-02T09:44:17.159Z,30.47
2023-05-02T09:46:48.026Z,27.80
2023-05-02T09:49:14.951Z,31.39
2023-05-02T09:51:44.070Z,27.55
2023-05-02T09:54:11.404Z,30.54
2023-05-02T09:56:56.684Z,31.20
2023-05-02T09:59:23.696Z,30.21
2023-05-02T10:02:07.552Z,26.97
2023-05-02T10:04:34.598Z,29.74
2023-05-02T10:07:02.328Z,28.75
2023-05-02T10:09:29.555Z,29.20
2023-05-02T10:11:56.617Z,31.19
2023-05-02T10:14:27.027Z,33.22
2023-05-02T10:17:21.592Z,30.48
2023-05-02T10:19:56.224Z,30.86
2023-05-02T10:22:23.235Z,31.21
2023-05-02T10:24:49.914Z,28.71
2023-05-02T10:27:16.722Z,30.36
2023-05-02T10:29:43.380Z,29.73
2023-05-02T10:32:10.034Z,30.62
2023-05-02T10:34:36.781Z,35.09
2023-05-02T10:37:03.640Z,30.11
2023-05-02T10:39:30.454Z,28.68
2023-05-02T10:41:58.593Z,28.74
2023-05-02T10:44:35.042Z,27.42
2023-05-02T10:47:01.790Z,31.16
2023-05-02T10:49:30.005Z,29.94
2023-05-02T10:51:56.791Z,29.34
2023-05-02T10:54:24.338Z,31.05
2023-05-02T10:57:06.620Z,28.82
2023-05-02T10:59:37.322Z,27.97
2023-05-02T11:02:07.461Z,30.56
2023-05-02T11:05:03.266Z,28.68
2023-05-02T11:07:31.246Z,30.48
2023-05-02T11:10:22.296Z,27.84
2023-05-02T11:12:56.072Z,33.09
2023-05-02T11:15:28.854Z,31.28
2023-05-02T11:18:07.674Z,28.81
2023-05-02T11:20:44.247Z,28.73
2023-05-02T11:23:17.001Z,30.84
2023-05-02T11:25:44.774Z,28.05
2023-05-02T11:28:40.627Z,29.38
2023-05-02T11:31:27.692Z,27.71
2023-05-02T11:34:01.430Z,30.85
2023-05-02T11:36:33.662Z,28.81
2023-05-02T11:39:01.242Z,28.87
2023-05-02T11:41:40.922Z,26.78
2023-05-02T11:44:07.583Z,30.79
2023-05-02T11:46:37.032Z,29.99
2023-05-02T11:49:04.409Z,27.32
2023-05-02T11:51:32.225Z,26.67
2023-05-02T11:53:58.932Z,30.21
2023-05-02T11:56:26.929Z,30.91
2023-05-02T11:59:03.631Z,28.37
2023-05-02T12:01:30.612Z,28.62
2023-05-02T12:04:04.321Z,27.25
2023-05-02T12:06:31.055Z,28.43
2023-05-02T12:09:13.012Z,29.82
2023-05-02T12:11:39.879Z,26.48
2023-05-02T12:14:06.940Z,28.77
2023-05-02T12:16:33.783Z,27.36
2023-05-02T12:19:01.331Z,27.11
2023-05-02T12:21:33.102Z,27.80
2023-05-02T12:24:00.951Z,27.80
2023-05-02T12:26:32.877Z,27.90
2023-05-02T12:29:00.932Z,28.27
2023-05-02T12:31:29.178Z,27.07
2023-05-02T12:33:57.934Z,29.31
2023-05-02T12:36:24.894Z,27.54
2023-05-02T12:38:53.867Z,27.51
2023-05-02T12:41:37.849Z,28.36
2023-05-02T12:44:08.308Z,27.35
2023-05-02T12:46:35.138Z,28.81
2023-05-02T12:49:09.735Z,27.71
2023-05-02T12:51:36.819Z,28.99
2023-05-02T12:54:04.032Z,29.28
2023-05-02T12:56:34.688Z,28.20
2023-05-02T12:59:04.018Z,27.34
2023-05-02T13:01:31.722Z,29.87
2023-05-02T13:03:58.643Z,27.72
2023-05-02T13:06:26.156Z,27.33
2023-05-02T13:08:52.886Z,28.61
2023-05-02T13:11:20.667Z,28.50
2023-05-02T13:13:47.495Z,27.43
2023-05-02T13:16:14.295Z,29.21
2023-05-02T13:18:41.457Z,29.53
2023-05-02T13:21:08.181Z,29.37
2023-05-02T13:23:35.002Z,29.66
2023-05-02T13:26:01.727Z,29.65
2023-05-02T13:28:30.402Z,30.07
2023-05-02T13:30:57.083Z,28.13
2023-05-02T13:33:23.862Z,28.17
2023-05-02T13:35:50.506Z,31.05
2023-05-02T13:38:17.166Z,30.64
2023-05-02T13:40:43.896Z,29.29
2023-05-02T13:43:10.573Z,28.83
2023-05-02T13:45:37.314Z,30.20
2023-05-02T13:48:04.230Z,29.98
2023-05-02T13:50:30.960Z,29.47
2023-05-02T13:52:57.594Z,28.86
2023-05-02T13:55:24.300Z,28.35
2023-05-02T13:57:50.922Z,30.26
2023-05-02T14:00:17.930Z,28.80
2023-05-02T14:02:46.956Z,29.72
2023-05-02T14:05:13.669Z,29.09
2023-05-02T14:07:40.374Z,30.22
2023-05-02T14:10:07.870Z,29.91
2023-05-02T14:12:34.611Z,31.19
2023-05-02T14:15:01.423Z,29.91
2023-05-02T14:17:28.186Z,31.05
2023-05-02T14:19:54.825Z,30.78
2023-05-02T14:22:21.629Z,31.92
2023-05-02T14:24:48.291Z,31.52
2023-05-02T14:27:18.365Z,30.85
2023-05-02T14:29:48.422Z,31.44
2023-05-02T14:32:15.324Z,30.39
2023-05-02T14:34:42.065Z,30.88
2023-05-02T14:37:09.359Z,31.15
2023-05-02T14:39:36.908Z,30.62
2023-05-02T14:42:04.570Z,31.82
2023-05-02T14:44:31.498Z,32.10
2023-05-02T14:46:58.256Z,31.48
2023-05-02T14:49:25.520Z,31.91
2023-05-02T14:51:52.717Z,32.61
2023-05-02T14:54:20.381Z,32.39
2023-05-02T14:56:48.353Z,32.02
2023-05-02T14:59:15.178Z,32.38
2023-05-02T15:01:41.949Z,32.66
2023-05-02T15:04:08.952Z,32.29
2023-05-02T15:06:36.571Z,32.59
2023-05-02T15:09:03.631Z,33.25
2023-05-02T15:11:30.550Z,32.41
2023-05-02T15:13:59.388Z,33.54
2023-05-02T15:16:27.406Z,33.34
2023-05-02T15:18:54.336Z,33.92
2023-05-02T15:21:21.056Z,33.50
2023-05-02T15:23:47.788Z,33.43
2023-05-02T15:26:14.436Z,33.56
2023-05-02T15:28:41.528Z,34.12
2023-05-02T15:31:08.198Z,34.39
2023-05-02T15:33:34.906Z,35.08
2023-05-02T15:36:01.685Z,33.83
2023-05-02T15:38:28.403Z,33.48
2023-05-02T15:40:59.742Z,33.30
2023-05-02T15:43:26.746Z,34.56
2023-05-02T15:45:54.499Z,33.15
2023-05-02T15:48:21.697Z,33.85
2023-05-02T15:50:49.853Z,33.58
2023-05-02T15:53:16.712Z,33.87
2023-05-02T15:55:43.604Z,33.99
2023-05-02T15:58:10.556Z,33.88
2023-05-02T16:00:37.214Z,35.28
2023-05-02T16:03:04.260Z,34.43
2023-05-02T16:05:31.131Z,34.32
2023-05-02T16:07:57.810Z,34.51
2023-05-02T16:10:24.560Z,35.55
2023-05-02T16:12:51.249Z,34.30
2023-05-02T16:15:17.892Z,33.85
2023-05-02T16:17:44.592Z,34.95
2023-05-02T16:20:12.952Z,35.26
2023-05-02T16:22:39.890Z,34.41
2023-05-02T16:25:07.155Z,34.67
2023-05-02T16:27:33.799Z,35.55
2023-05-02T16:30:00.788Z,35.95
2023-05-02T16:32:28.218Z,35.72
2023-05-02T16:34:55.006Z,35.98
2023-05-02T16:37:21.634Z,36.04
2023-05-02T16:39:48.577Z,35.69
2023-05-02T16:42:15.393Z,35.92
2023-05-02T16:44:42.155Z,36.27
2023-05-02T16:47:09.058Z,36.38
2023-05-02T16:49:36.001Z,37.16
2023-05-02T16:52:02.692Z,37.35
2023-05-02T16:54:29.326Z,36.96
2023-05-02T16:56:55.998Z,36.99
2023-05-02T16:59:22.646Z,38.08
2023-05-02T17:01:50.072Z,38.22
2023-05-02T17:04:17.143Z,39.04
2023-05-02T17:06:43.843Z,38.29
2023-05-02T17:09:10.616Z,38.45
2023-05-02T17:11:37.336Z,39.02
2023-05-02T17:14:03.999Z,40.11
2023-05-02T17:16:30.762Z,39.63
2023-05-02T17:18:57.772Z,39.81
2023-05-02T17:21:24.461Z,40.56
2023-05-02T17:23:51.176Z,40.67
2023-05-02T17:26:17.950Z,40.36
2023-05-02T17:28:45.888Z,40.88
2023-05-02T17:31:13.128Z,41.71
2023-05-02T17:33:39.918Z,41.86
2023-05-02T17:36:06.962Z,42.30
2023-05-02T17:38:33.642Z,42.78
2023-05-02T17:41:00.588Z,43.42
2023-05-02T17:43:27.251Z,43.08
2023-05-02T17:45:54.036Z,44.46
2023-05-02T17:48:20.839Z,44.32
2023-05-02T17:50:49.871Z,43.53
2023-05-02T17:53:16.869Z,43.15
2023-05-02T17:55:43.656Z,42.91
2023-05-02T17:58:10.416Z,43.47
2023-05-02T18:00:37.056Z,44.39
2023-05-02T18:03:04.169Z,47.44
2023-05-02T18:05:30.979Z,45.28
2023-05-02T18:07:58.859Z,45.81
2023-05-02T18:10:25.670Z,45.04
2023-05-02T18:12:52.610Z,46.03
2023-05-02T18:15:19.420Z,46.33
2023-05-02T18:17:46.207Z,47.82
2023-05-02T18:20:14.410Z,48.32
2023-05-02T18:22:41.475Z,48.63
2023-05-02T18:25:08.359Z,49.40
2023-05-02T18:27:35.098Z,49.57
2023-05-02T18:30:01.912Z,50.23
2023-05-02T18:32:28.644Z,50.57
2023-05-02T18:34:55.282Z,49.99
2023-05-02T18:37:27.616Z,50.89
2023-05-02T18:39:54.625Z,51.36
2023-05-02T18:42:21.237Z,51.84
2023-05-02T18:44:48.182Z,52.28
2023-05-02T18:47:16.707Z,52.74
2023-05-02T18:49:44.027Z,51.77
2023-05-02T18:52:11.032Z,51.28
2023-05-02T18:54:37.732Z,51.36
2023-05-02T18:57:05.145Z,51.44
2023-05-02T18:59:32.113Z,51.97
2023-05-02T19:01:58.859Z,52.47
2023-05-02T19:04:26.166Z,53.18
2023-05-02T19:06:52.917Z,53.36
2023-05-02T19:09:19.786Z,52.93
2023-05-02T19:11:46.920Z,52.98
2023-05-02T19:14:13.596Z,53.08
2023-05-02T19:16:41.112Z,53.68
2023-05-02T19:19:07.929Z,51.93
2023-05-02T19:21:34.582Z,52.49
2023-05-02T19:24:01.947Z,52.14
2023-05-02T19:26:28.681Z,52.82
2023-05-02T19:28:55.335Z,53.23
2023-05-02T19:31:23.490Z,54.94
2023-05-02T19:33:51.695Z,55.63
2023-05-02T19:36:18.980Z,55.01
2023-05-02T19:38:51.309Z,55.80
2023-05-02T19:41:18.040Z,55.92
2023-05-02T19:43:44.715Z,55.66
2023-05-02T19:46:11.535Z,56.10
2023-05-02T19:48:38.230Z,56.09
2023-05-02T19:51:05.017Z,55.29
2023-05-02T19:53:32.509Z,55.45
2023-05-02T19:55:59.950Z,55.60
2023-05-02T19:58:27.047Z,55.90
2023-05-02T20:00:53.798Z,56.65
2023-05-02T20:03:24.282Z,57.15
2023-05-02T20:05:51.275Z,56.83
2023-05-02T20:08:18.128Z,57.08
2023-05-02T20:10:44.759Z,57.73
2023-05-02T20:13:11.482Z,57.63
2023-05-02T20:15:38.483Z,57.39
2023-05-02T20:18:05.231Z,57.70
2023-05-02T20:20:32.003Z,57.67
2023-05-02T20:22:59.332Z,57.93
2023-05-02T20:25:26.126Z,58.46
2023-05-02T20:27:52.887Z,58.70
2023-05-02T20:30:19.981Z,58.46
2023-05-02T20:32:46.686Z,58.28
2023-05-02T20:35:13.434Z,59.23
2023-05-02T20:37:40.149Z,59.42
2023-05-02T20:40:10.035Z,59.28
2023-05-02T20:42:38.938Z,59.04
2023-05-02T20:45:08.843Z,59.64
2023-05-02T20:47:35.525Z,59.89
2023-05-02T20:50:02.559Z,59.67
2023-05-02T20:52:29.516Z,59.81
2023-05-02T20:54:56.327Z,59.95
2023-05-02T20:57:23.053Z,60.29
2023-05-02T20:59:49.721Z,60.34
2023-05-02T21:02:16.444Z,59.77
2023-05-02T21:04:43.194Z,59.91
2023-05-02T21:07:09.857Z,60.60
2023-05-02T21:09:36.491Z,60.49
2023-05-02T21:12:03.241Z,60.11
2023-05-02T21:14:29.866Z,60.58
2023-05-02T21:16:56.484Z,61.27
2023-05-02T21:19:23.192Z,61.24
2023-05-02T21:21:49.916Z,61.01
2023-05-02T21:24:16.592Z,59.98
2023-05-02T21:26:43.252Z,59.40
2023-05-02T21:29:11.028Z,59.24
2023-05-02T21:31:39.542Z,59.16
2023-05-02T21:34:06.423Z,59.48
2023-05-02T21:36:33.066Z,59.82
2023-05-02T21:38:59.720Z,60.26
2023-05-02T21:41:26.339Z,60.41
2023-05-02T21:43:53.782Z,60.81
2023-05-02T21:46:20.963Z,60.38
2023-05-02T21:48:47.681Z,60.90
2023-05-02T21:51:14.470Z,61.21
2023-05-02T21:53:41.231Z,61.19
2023-05-02T21:56:08.036Z,60.82
2023-05-02T21:58:34.671Z,60.24
2023-05-02T22:01:01.596Z,59.79
2023-05-02T22:03:28.352Z,60.45
2023-05-02T22:05:56.208Z,60.21
2023-05-02T22:08:24.143Z,60.76
2023-05-02T22:10:50.907Z,61.27
2023-05-02T22:13:18.286Z,61.62
2023-05-02T22:15:46.265Z,62.24
2023-05-02T22:18:13.910Z,62.95
2023-05-02T22:20:42.095Z,62.80
2023-05-02T22:23:09.320Z,62.62
2023-05-02T22:25:40.638Z,62.59
2023-05-02T22:28:11.126Z,62.57
2023-05-02T22:30:42.928Z,62.23
2023-05-02T22:33:09.752Z,62.22
2023-05-02T22:35:39.423Z,61.87
2023-05-02T22:38:06.421Z,62.65
2023-05-02T22:40:33.105Z,62.72
2023-05-02T22:43:00.628Z,62.33
2023-05-02T22:45:27.956Z,62.01
2023-05-02T22:47:54.722Z,62.44
2023-05-02T22:50:21.725Z,62.92
2023-05-02T22:52:49.197Z,62.86
2023-05-02T22:55:16.102Z,63.01
2023-05-02T22:57:42.965Z,63.37
2023-05-02T23:00:10.317Z,63.71
2023-05-02T23:02:37.091Z,62.90
2023-05-02T23:05:07.148Z,62.89
2023-05-02T23:07:34.184Z,63.25
2023-05-02T23:10:01.403Z,63.27
2023-05-02T23:12:28.497Z,63.25
2023-05-02T23:14:55.242Z,63.70
2023-05-02T23:17:22.034Z,63.96
2023-05-02T23:19:50.023Z,64.51
2023-05-02T23:22:16.721Z,65.08
2023-05-02T23:24:45.620Z,64.51
2023-05-02T23:27:12.374Z,64.77
2023-05-02T23:29:39.055Z,64.43
2023-05-02T23:32:08.146Z,64.33
2023-05-02T23:34:36.522Z,64.38
2023-05-02T23:37:03.295Z,64.61
2023-05-02T23:39:29.963Z,64.11
2023-05-02T23:41:56.774Z,64.87
2023-05-02T23:44:23.650Z,64.61
2023-05-02T23:46:50.529Z,64.57
2023-05-02T23:49:17.239Z,65.02
2023-05-02T23:51:43.940Z,64.45
2023-05-02T23:54:10.972Z,65.50
2023-05-02T23:56:37.702Z,65.99
2023-05-02T23:59:04.741Z,66.45
